createdAt,value
2023-05-15T00:01:44.423Z,9.84
2023-05-15T00:04:12.050Z,9.88
2023-05-15T00:06:39.710Z,9.89
2023-05-15T00:09:07.365Z,9.89
2023-05-15T00:11:35.000Z,9.92
2023-05-15T00:14:02.620Z,9.98
2023-05-15T00:16:30.389Z,10.01
2023-05-15T00:18:59.536Z,9.99
2023-05-15T00:21:27.183Z,10.03
2023-05-15T00:23:54.946Z,10.03
2023-05-15T00:26:24.494Z,10.00
2023-05-15T00:28:52.435Z,10.01
2023-05-15T00:31:20.116Z,10.00
2023-05-15T00:33:47.807Z,9.97
2023-05-15T00:36:17.528Z,9.99
2023-05-15T00:38:45.379Z,9.99
2023-05-15T00:41:13.363Z,9.98
2023-05-15T00:43:41.381Z,9.98
2023-05-15T00:46:09.066Z,10.03
2023-05-15T00:48:36.750Z,10.06
2023-05-15T00:51:04.695Z,10.06
2023-05-15T00:53:33.730Z,10.06
2023-05-15T00:56:01.910Z,10.11
2023-05-15T00:58:30.152Z,10.16
2023-05-15T01:00:57.818Z,10.20
2023-05-15T01:03:25.556Z,10.24
2023-05-15T01:05:53.245Z,10.27
2023-05-15T01:08:24.604Z,10.27
2023-05-15T01:10:53.721Z,10.28
2023-05-15T01:13:22.134Z,10.29
2023-05-15T01:15:50.696Z,10.31
2023-05-15T01:18:18.679Z,10.34
2023-05-15T01:20:55.468Z,10.33
2023-05-15T01:23:27.600Z,10.33
2023-05-15T01:26:14.742Z,10.34
2023-05-15T01:28:49.406Z,10.35
2023-05-15T01:31:20.506Z,10.37
2023-05-15T01:33:52.084Z,10.39
2023-05-15T01:36:23.355Z,10.42
2023-05-15T01:38:53.879Z,10.44
2023-05-15T01:41:25.540Z,10.45
2023-05-15T01:44:00.464Z,10.44
2023-05-15T01:46:31.041Z,10.44
2023-05-15T01:48:59.680Z,10.44
2023-05-15T01:51:28.819Z,10.42
2023-05-15T01:53:58.448Z,10.43
2023-05-15T01:56:27.138Z,10.43
2023-05-15T01:58:56.672Z,10.38
2023-05-15T02:01:24.903Z,10.38
2023-05-15T02:03:52.996Z,10.34
2023-05-15T02:06:21.221Z,10.32
2023-05-15T02:08:49.405Z,10.32
2023-05-15T02:11:17.033Z,10.35
2023-05-15T02:13:45.336Z,10.36
2023-05-15T02:16:14.359Z,10.38
2023-05-15T02:18:42.131Z,10.36
2023-05-15T02:21:09.893Z,10.37
2023-05-15T02:23:37.593Z,10.36
2023-05-15T02:26:14.322Z,10.37
2023-05-15T02:28:46.565Z,10.40
2023-05-15T02:31:15.722Z,10.42
2023-05-15T02:33:47.043Z,10.44
2023-05-15T02:36:20.941Z,10.45
2023-05-15T02:38:50.067Z,10.43
2023-05-15T02:41:17.896Z,10.43
2023-05-15T02:43:46.594Z,10.45
2023-05-15T02:46:15.848Z,10.46
2023-05-15T02:48:43.964Z,10.45
2023-05-15T02:51:11.705Z,10.45
2023-05-15T02:53:40.431Z,10.43
2023-05-15T02:56:08.223Z,10.41
2023-05-15T02:58:36.237Z,10.42
2023-05-15T03:01:04.512Z,10.42
2023-05-15T03:03:33.723Z,10.39
2023-05-15T03:06:01.802Z,10.36
2023-05-15T03:08:29.625Z,10.34
2023-05-15T03:10:57.307Z,10.32
2023-05-15T03:13:25.700Z,10.31
2023-05-15T03:15:53.650Z,10.32
2023-05-15T03:18:21.295Z,10.32
2023-05-15T03:20:51.011Z,10.31
2023-05-15T03:23:18.614Z,10.31
2023-05-15T03:25:46.202Z,10.30
2023-05-15T03:28:13.807Z,10.30
2023-05-15T03:30:41.390Z,10.27
2023-05-15T03:33:08.970Z,10.25
2023-05-15T03:35:36.664Z,10.25
2023-05-15T03:38:05.631Z,10.23
2023-05-15T03:40:33.203Z,10.23
2023-05-15T03:43:00.819Z,10.18
2023-05-15T03:45:28.540Z,10.19
2023-05-15T03:47:56.470Z,10.17
2023-05-15T03:50:24.081Z,10.14
2023-05-15T03:52:51.688Z,10.11
2023-05-15T03:55:20.649Z,10.06
2023-05-15T03:57:48.308Z,10.07
2023-05-15T04:00:17.104Z,10.10
2023-05-15T04:02:46.745Z,10.10
2023-05-15T04:05:14.447Z,10.10
2023-05-15T04:07:42.104Z,10.09
2023-05-15T04:10:10.015Z,10.08
2023-05-15T04:12:39.019Z,10.07
2023-05-15T04:15:17.366Z,10.08
2023-05-15T04:17:45.034Z,10.08
2023-05-15T04:20:14.235Z,10.09
2023-05-15T04:22:41.975Z,10.10
2023-05-15T04:25:11.218Z,10.08
2023-05-15T04:27:40.301Z,10.10
2023-05-15T04:30:09.091Z,10.12
2023-05-15T04:32:37.504Z,10.12
2023-05-15T04:35:06.580Z,10.16
2023-05-15T04:37:34.234Z,10.16
2023-05-15T04:40:01.803Z,10.16
2023-05-15T04:42:29.408Z,10.18
2023-05-15T04:44:58.415Z,10.18
2023-05-15T04:47:26.048Z,10.23
2023-05-15T04:49:54.020Z,10.27
2023-05-15T04:52:21.811Z,10.30
2023-05-15T04:54:51.014Z,10.32
2023-05-15T04:57:18.863Z,10.33
2023-05-15T04:59:46.451Z,10.35
2023-05-15T05:02:15.489Z,10.43
2023-05-15T05:04:44.034Z,10.47
2023-05-15T05:07:11.645Z,10.56
2023-05-15T05:09:39.948Z,10.63
2023-05-15T05:12:08.460Z,10.73
2023-05-15T05:14:36.338Z,10.82
2023-05-15T05:17:04.357Z,10.91
2023-05-15T05:19:33.319Z,10.97
2023-05-15T05:22:04.630Z,10.99
2023-05-15T05:24:33.002Z,10.98
2023-05-15T05:27:00.683Z,11.01
2023-05-15T05:29:28.321Z,11.08
2023-05-15T05:31:56.038Z,11.15
2023-05-15T05:34:23.960Z,11.24
2023-05-15T05:36:52.980Z,11.27
2023-05-15T05:39:20.655Z,11.34
2023-05-15T05:41:48.309Z,11.39
2023-05-15T05:44:16.059Z,11.45
2023-05-15T05:46:45.279Z,11.54
2023-05-15T05:49:12.911Z,11.64
2023-05-15T05:51:40.519Z,11.71
2023-05-15T05:54:09.439Z,11.59
2023-05-15T05:56:37.245Z,11.57
2023-05-15T05:59:06.438Z,11.44
2023-05-15T06:01:34.081Z,11.55
2023-05-15T06:04:01.916Z,11.63
2023-05-15T06:06:29.964Z,11.63
2023-05-15T06:08:57.617Z,11.73
2023-05-15T06:11:27.117Z,11.75
2023-05-15T06:13:54.685Z,11.82
2023-05-15T06:16:22.779Z,11.94
2023-05-15T06:18:50.402Z,11.91
2023-05-15T06:21:18.017Z,12.01
2023-05-15T06:23:45.785Z,12.12
2023-05-15T06:26:13.365Z,12.10
2023-05-15T06:28:42.245Z,12.05
2023-05-15T06:31:10.011Z,11.96
2023-05-15T06:33:37.686Z,11.88
2023-05-15T06:36:05.796Z,12.05
2023-05-15T06:38:33.375Z,12.01
2023-05-15T06:41:01.075Z,12.12
2023-05-15T06:43:28.638Z,12.27
2023-05-15T06:45:57.577Z,12.33
2023-05-15T06:48:25.249Z,12.40
2023-05-15T06:50:52.865Z,12.46
2023-05-15T06:53:20.989Z,12.57
2023-05-15T06:55:48.592Z,12.65
2023-05-15T06:58:17.955Z,12.72
2023-05-15T07:00:45.549Z,12.79
2023-05-15T07:03:16.654Z,12.63
2023-05-15T07:05:44.264Z,12.35
2023-05-15T07:08:11.889Z,12.24
2023-05-15T07:10:39.492Z,12.36
2023-05-15T07:13:07.170Z,12.35
2023-05-15T07:15:34.804Z,12.27
2023-05-15T07:18:02.471Z,12.28
2023-05-15T07:20:33.499Z,12.14
2023-05-15T07:23:02.634Z,12.07
2023-05-15T07:25:30.302Z,12.08
2023-05-15T07:27:57.907Z,12.12
2023-05-15T07:30:26.749Z,12.17
2023-05-15T07:32:54.599Z,12.24
2023-05-15T07:35:22.227Z,12.19
2023-05-15T07:37:51.253Z,12.42
2023-05-15T07:40:18.898Z,12.62
2023-05-15T07:42:47.005Z,12.66
2023-05-15T07:45:14.687Z,12.87
2023-05-15T07:47:46.100Z,13.13
2023-05-15T07:50:14.162Z,13.03
2023-05-15T07:52:43.041Z,12.88
2023-05-15T07:55:12.513Z,12.67
2023-05-15T07:57:40.802Z,12.68
2023-05-15T08:00:13.354Z,12.92
2023-05-15T08:02:41.312Z,13.20
2023-05-15T08:05:09.454Z,13.73
2023-05-15T08:07:37.084Z,14.19
2023-05-15T08:10:06.212Z,14.52
2023-05-15T08:12:35.403Z,14.71
2023-05-15T08:15:03.100Z,14.82
2023-05-15T08:17:30.704Z,14.96
2023-05-15T08:19:58.339Z,15.04
2023-05-15T08:22:25.942Z,15.08
2023-05-15T08:24:53.579Z,15.08
2023-05-15T08:27:21.151Z,14.56
2023-05-15T08:29:50.119Z,14.72
2023-05-15T08:32:18.159Z,14.29
2023-05-15T08:34:45.791Z,14.11
2023-05-15T08:37:13.406Z,13.78
2023-05-15T08:39:41.067Z,14.13
2023-05-15T08:42:10.341Z,14.44
2023-05-15T08:44:38.159Z,14.48
2023-05-15T08:47:07.754Z,14.88
2023-05-15T08:49:42.155Z,14.87
2023-05-15T08:52:10.149Z,15.02
2023-05-15T08:54:38.082Z,15.41
2023-05-15T08:57:06.120Z,15.85
2023-05-15T08:59:33.997Z,15.93
2023-05-15T09:02:01.712Z,16.11
2023-05-15T09:04:30.979Z,16.02
2023-05-15T09:07:00.188Z,16.08
2023-05-15T09:09:29.296Z,16.05
2023-05-15T09:11:57.017Z,15.88
2023-05-15T09:14:24.759Z,15.87
2023-05-15T09:16:53.486Z,15.61
2023-05-15T09:19:22.552Z,15.15
2023-05-15T09:21:52.046Z,14.75
2023-05-15T09:24:21.640Z,14.59
2023-05-15T09:27:02.788Z,15.07
2023-05-15T09:29:31.404Z,15.55
2023-05-15T09:32:03.998Z,16.13
2023-05-15T09:34:32.961Z,16.41
2023-05-15T09:37:04.564Z,16.48
2023-05-15T09:39:32.221Z,16.34
2023-05-15T09:42:07.805Z,15.80
2023-05-15T09:44:36.093Z,15.99
2023-05-15T09:47:03.810Z,16.22
2023-05-15T09:49:33.387Z,16.64
2023-05-15T09:52:02.757Z,17.13
2023-05-15T09:54:31.326Z,17.57
2023-05-15T09:57:08.639Z,17.45
2023-05-15T09:59:36.262Z,17.09
2023-05-15T10:02:03.915Z,16.55
2023-05-15T10:04:35.936Z,16.39
2023-05-15T10:07:05.250Z,16.61
2023-05-15T10:09:33.632Z,17.12
2023-05-15T10:12:01.304Z,17.34
2023-05-15T10:14:29.099Z,17.53
2023-05-15T10:16:57.249Z,17.01
2023-05-15T10:19:26.543Z,17.60
2023-05-15T10:21:54.848Z,18.19
2023-05-15T10:24:24.326Z,18.33
2023-05-15T10:26:52.008Z,18.32
2023-05-15T10:29:21.129Z,18.38
2023-05-15T10:31:49.940Z,18.09
2023-05-15T10:34:17.857Z,18.02
2023-05-15T10:36:46.064Z,18.55
2023-05-15T10:39:13.786Z,19.02
2023-05-15T10:41:43.163Z,18.73
2023-05-15T10:44:11.424Z,19.17
2023-05-15T10:46:39.271Z,19.54
2023-05-15T10:49:06.926Z,18.94
2023-05-15T10:51:36.814Z,18.63
2023-05-15T10:54:04.854Z,18.65
2023-05-15T10:56:33.281Z,18.94
2023-05-15T10:59:07.103Z,18.61
2023-05-15T11:01:36.082Z,19.06
2023-05-15T11:04:11.798Z,18.80
2023-05-15T11:06:40.739Z,19.17
2023-05-15T11:09:36.952Z,19.61
2023-05-15T11:12:07.228Z,18.75
2023-05-15T11:14:39.209Z,19.09
2023-05-15T11:17:08.743Z,19.64
2023-05-15T11:19:55.464Z,19.44
2023-05-15T11:22:24.403Z,19.96
2023-05-15T11:24:53.595Z,20.29
2023-05-15T11:27:22.561Z,20.79
2023-05-15T11:30:22.875Z,20.78
2023-05-15T11:32:53.220Z,20.80
2023-05-15T11:35:23.544Z,20.65
2023-05-15T11:37:53.909Z,19.01
2023-05-15T11:40:24.410Z,18.45
2023-05-15T11:43:03.203Z,18.33
2023-05-15T11:45:33.806Z,18.30
2023-05-15T11:48:03.387Z,18.27
2023-05-15T11:50:32.152Z,17.57
2023-05-15T11:53:00.142Z,16.66
2023-05-15T11:55:28.232Z,16.23
2023-05-15T11:57:55.874Z,15.94
2023-05-15T12:00:23.851Z,16.13
2023-05-15T12:02:53.263Z,16.28
2023-05-15T12:05:21.029Z,16.09
2023-05-15T12:07:48.798Z,16.27
2023-05-15T12:10:16.465Z,16.30
2023-05-15T12:12:45.552Z,16.25
2023-05-15T12:15:14.245Z,16.08
2023-05-15T12:17:42.479Z,16.11
2023-05-15T12:20:17.754Z,16.08
2023-05-15T12:22:45.555Z,15.83
2023-05-15T12:25:13.925Z,15.95
2023-05-15T12:27:41.635Z,16.07
2023-05-15T12:30:10.872Z,16.04
2023-05-15T12:32:39.084Z,16.22
2023-05-15T12:35:07.702Z,16.28
2023-05-15T12:37:37.521Z,16.36
2023-05-15T12:40:10.298Z,16.09
2023-05-15T12:42:42.627Z,16.15
2023-05-15T12:45:15.000Z,15.54
2023-05-15T12:47:43.505Z,15.41
2023-05-15T12:50:18.212Z,15.67
2023-05-15T12:52:53.559Z,15.85
2023-05-15T12:55:25.395Z,15.85
2023-05-15T12:57:53.313Z,15.83
2023-05-15T13:00:22.623Z,15.89
2023-05-15T13:02:51.529Z,16.02
2023-05-15T13:05:19.404Z,16.22
2023-05-15T13:07:47.010Z,16.42
2023-05-15T13:10:16.038Z,16.47
2023-05-15T13:12:45.255Z,16.77
2023-05-15T13:15:25.504Z,16.87
2023-05-15T13:17:59.303Z,17.18
2023-05-15T13:20:28.032Z,17.47
2023-05-15T13:22:55.921Z,17.57
2023-05-15T13:25:24.974Z,17.30
2023-05-15T13:27:52.860Z,17.25
2023-05-15T13:30:20.700Z,17.27
2023-05-15T13:32:48.705Z,17.60
2023-05-15T13:35:16.601Z,17.84
2023-05-15T13:37:44.294Z,17.94
2023-05-15T13:40:13.366Z,18.20
2023-05-15T13:42:43.384Z,18.10
2023-05-15T13:45:12.624Z,18.00
2023-05-15T13:47:40.685Z,18.37
2023-05-15T13:50:09.971Z,18.57
2023-05-15T13:52:38.015Z,18.74
2023-05-15T13:55:06.706Z,18.78
2023-05-15T13:57:34.421Z,18.85
2023-05-15T14:00:04.919Z,18.48
2023-05-15T14:02:32.564Z,17.45
2023-05-15T14:05:00.799Z,16.94
2023-05-15T14:07:28.478Z,16.58
2023-05-15T14:09:56.102Z,15.75
2023-05-15T14:12:23.702Z,15.87
2023-05-15T14:14:51.508Z,15.90
2023-05-15T14:17:20.515Z,15.74
2023-05-15T14:19:48.138Z,15.87
2023-05-15T14:22:16.156Z,16.10
2023-05-15T14:24:44.121Z,15.30
2023-05-15T14:27:11.777Z,15.69
2023-05-15T14:29:40.433Z,15.63
2023-05-15T14:32:08.834Z,15.13
2023-05-15T14:34:37.935Z,15.44
2023-05-15T14:37:06.033Z,14.98
2023-05-15T14:39:33.779Z,15.03
2023-05-15T14:42:01.405Z,15.08
2023-05-15T14:44:29.488Z,14.37
2023-05-15T14:47:07.860Z,14.33
2023-05-15T14:49:35.975Z,14.14
2023-05-15T14:52:06.503Z,14.21
2023-05-15T14:54:35.453Z,14.13
2023-05-15T14:57:03.673Z,14.32
2023-05-15T14:59:31.616Z,14.29
2023-05-15T15:01:59.287Z,14.09
2023-05-15T15:04:29.082Z,13.96
2023-05-15T15:06:57.360Z,13.97
2023-05-15T15:09:28.955Z,14.12
2023-05-15T15:11:56.768Z,14.24
2023-05-15T15:14:24.395Z,14.20
2023-05-15T15:16:52.095Z,14.38
2023-05-15T15:19:20.391Z,14.57
2023-05-15T15:21:48.431Z,14.51
2023-05-15T15:24:16.110Z,14.30
2023-05-15T15:26:45.065Z,14.29
2023-05-15T15:29:12.675Z,14.35
2023-05-15T15:31:40.363Z,14.16
2023-05-15T15:34:08.961Z,14.15
2023-05-15T15:36:38.549Z,14.19
2023-05-15T15:39:06.477Z,14.13
2023-05-15T15:41:34.477Z,14.00
2023-05-15T15:44:03.633Z,13.92
2023-05-15T15:46:31.284Z,13.93
2023-05-15T15:48:58.969Z,13.90
2023-05-15T15:51:26.654Z,13.86
2023-05-15T15:53:54.322Z,13.92
2023-05-15T15:56:22.316Z,13.85
2023-05-15T15:58:49.934Z,13.79
2023-05-15T16:01:18.983Z,13.69
2023-05-15T16:03:46.619Z,13.67
2023-05-15T16:06:14.411Z,13.56
2023-05-15T16:08:42.035Z,13.39
2023-05-15T16:11:09.665Z,13.26
2023-05-15T16:13:38.312Z,12.77
2023-05-15T16:16:07.389Z,12.66
2023-05-15T16:18:36.455Z,12.72
2023-05-15T16:21:04.149Z,12.81
2023-05-15T16:23:34.528Z,12.74
2023-05-15T16:26:02.204Z,12.65
2023-05-15T16:28:29.848Z,12.32
2023-05-15T16:30:57.559Z,12.32
2023-05-15T16:33:25.182Z,12.15
2023-05-15T16:35:54.320Z,12.24
2023-05-15T16:38:22.869Z,12.34
2023-05-15T16:40:50.569Z,12.36
2023-05-15T16:43:18.168Z,12.42
2023-05-15T16:45:46.216Z,12.49
2023-05-15T16:48:13.912Z,12.58
2023-05-15T16:50:41.621Z,12.71
2023-05-15T16:53:10.802Z,12.66
2023-05-15T16:55:39.202Z,12.66
2023-05-15T16:58:06.790Z,12.73
2023-05-15T17:00:34.381Z,12.78
2023-05-15T17:03:02.156Z,12.85
2023-05-15T17:05:29.903Z,12.91
2023-05-15T17:07:57.764Z,12.77
2023-05-15T17:10:26.925Z,12.70
2023-05-15T17:12:54.693Z,12.80
2023-05-15T17:15:22.262Z,12.82
2023-05-15T17:17:49.982Z,12.81
2023-05-15T17:20:17.723Z,12.94
2023-05-15T17:22:45.336Z,13.02
2023-05-15T17:25:12.958Z,13.03
2023-05-15T17:27:42.306Z,13.00
2023-05-15T17:30:11.100Z,13.19
2023-05-15T17:32:39.305Z,13.02
2023-05-15T17:35:08.176Z,12.85
2023-05-15T17:37:36.024Z,12.85
2023-05-15T17:40:03.730Z,12.71
2023-05-15T17:42:31.413Z,12.68
2023-05-15T17:45:00.484Z,12.57
2023-05-15T17:47:28.126Z,12.59
2023-05-15T17:49:55.899Z,12.58
2023-05-15T17:52:23.485Z,12.60
2023-05-15T17:54:51.185Z,12.39
2023-05-15T17:57:18.795Z,12.22
2023-05-15T17:59:46.476Z,12.13
2023-05-15T18:02:15.425Z,12.13
2023-05-15T18:04:43.023Z,12.02
2023-05-15T18:07:10.660Z,12.01
2023-05-15T18:09:39.314Z,11.98
2023-05-15T18:12:07.793Z,11.90
2023-05-15T18:14:35.425Z,12.00
2023-05-15T18:17:03.046Z,11.90
2023-05-15T18:19:32.016Z,11.91
2023-05-15T18:22:02.708Z,11.88
2023-05-15T18:24:30.367Z,11.94
2023-05-15T18:26:57.996Z,11.95
2023-05-15T18:29:26.075Z,11.79
2023-05-15T18:31:53.754Z,11.78
2023-05-15T18:34:21.540Z,11.77
2023-05-15T18:36:51.990Z,11.70
2023-05-15T18:39:19.690Z,11.65
2023-05-15T18:41:47.287Z,11.60
2023-05-15T18:44:14.877Z,11.57
2023-05-15T18:46:42.654Z,11.53
2023-05-15T18:49:10.298Z,11.47
2023-05-15T18:51:37.917Z,11.43
2023-05-15T18:54:06.966Z,11.42
2023-05-15T18:56:34.604Z,11.26
2023-05-15T18:59:02.224Z,11.21
2023-05-15T19:01:29.918Z,11.20
2023-05-15T19:03:57.745Z,11.11
2023-05-15T19:06:25.391Z,11.09
2023-05-15T19:08:53.029Z,11.07
2023-05-15T19:11:22.148Z,10.92
2023-05-15T19:13:49.753Z,10.96
2023-05-15T19:16:17.381Z,10.95
2023-05-15T19:18:45.103Z,10.86
2023-05-15T19:21:12.830Z,10.87
2023-05-15T19:23:40.446Z,10.90
2023-05-15T19:26:10.230Z,10.86
2023-05-15T19:28:39.249Z,10.83
2023-05-15T19:31:11.719Z,10.77
2023-05-15T19:33:42.124Z,10.74
2023-05-15T19:36:09.910Z,10.72
2023-05-15T19:38:37.542Z,10.71
2023-05-15T19:41:05.278Z,10.65
2023-05-15T19:43:35.908Z,10.59
2023-05-15T19:46:04.948Z,10.56
2023-05-15T19:48:32.766Z,10.59
2023-05-15T19:51:00.383Z,10.53
2023-05-15T19:53:28.068Z,10.45
2023-05-15T19:55:55.719Z,10.40
2023-05-15T19:58:23.304Z,10.41
2023-05-15T20:00:52.661Z,10.41
2023-05-15T20:03:22.163Z,10.37
2023-05-15T20:05:49.887Z,10.38
2023-05-15T20:08:17.556Z,10.37
2023-05-15T20:10:45.381Z,10.40
2023-05-15T20:13:12.971Z,10.34
2023-05-15T20:15:40.590Z,10.37
2023-05-15T20:18:08.588Z,10.36
2023-05-15T20:20:37.545Z,10.33
2023-05-15T20:23:05.854Z,10.34
2023-05-15T20:25:33.544Z,10.28
2023-05-15T20:28:01.247Z,10.23
2023-05-15T20:30:29.129Z,10.17
2023-05-15T20:33:07.077Z,10.15
2023-05-15T20:35:34.766Z,10.14
2023-05-15T20:38:04.233Z,10.10
2023-05-15T20:40:31.954Z,10.06
2023-05-15T20:43:01.173Z,10.06
2023-05-15T20:45:29.079Z,10.00
2023-05-15T20:47:57.438Z,9.94
2023-05-15T20:50:25.302Z,9.92
2023-05-15T20:52:53.790Z,9.90
2023-05-15T20:55:22.863Z,9.91
2023-05-15T20:57:50.850Z,9.94
2023-05-15T21:00:19.317Z,9.95
2023-05-15T21:02:47.416Z,9.98
2023-05-15T21:05:15.328Z,9.96
2023-05-15T21:07:42.899Z,9.93
2023-05-15T21:10:10.795Z,9.87
2023-05-15T21:12:39.850Z,9.87
2023-05-15T21:15:08.855Z,9.84
2023-05-15T21:17:36.508Z,9.81
2023-05-15T21:20:04.948Z,9.74
2023-05-15T21:22:33.144Z,9.74
2023-05-15T21:25:00.734Z,9.74
2023-05-15T21:27:28.341Z,9.75
2023-05-15T21:29:57.365Z,9.76
2023-05-15T21:32:25.013Z,9.74
2023-05-15T21:34:52.649Z,9.71
2023-05-15T21:37:20.235Z,9.69
2023-05-15T21:39:47.832Z,9.69
2023-05-15T21:42:15.428Z,9.68
2023-05-15T21:44:43.100Z,9.66
2023-05-15T21:47:12.004Z,9.65
2023-05-15T21:49:39.589Z,9.63
2023-05-15T21:52:07.235Z,9.66
2023-05-15T21:54:34.914Z,9.66
2023-05-15T21:57:02.502Z,9.70
2023-05-15T21:59:30.134Z,9.69
2023-05-15T22:01:57.776Z,9.68
2023-05-15T22:04:28.655Z,9.71
2023-05-15T22:06:56.315Z,9.72
2023-05-15T22:09:23.969Z,9.72
2023-05-15T22:11:51.793Z,9.72
2023-05-15T22:14:19.413Z,9.74
2023-05-15T22:16:47.163Z,9.76
2023-05-15T22:19:31.597Z,9.78
2023-05-15T22:22:01.914Z,9.80
2023-05-15T22:24:29.627Z,9.81
2023-05-15T22:26:57.602Z,9.81
2023-05-15T22:29:25.307Z,9.82
2023-05-15T22:31:52.984Z,9.85
2023-05-15T22:34:20.672Z,9.89
2023-05-15T22:36:48.278Z,9.91
2023-05-15T22:39:17.272Z,9.92
2023-05-15T22:41:44.961Z,9.90
2023-05-15T22:44:12.635Z,9.88
2023-05-15T22:46:40.267Z,9.90
2023-05-15T22:49:09.773Z,9.93
2023-05-15T22:51:38.008Z,9.94
2023-05-15T22:54:05.712Z,9.94
2023-05-15T22:56:34.730Z,9.91
2023-05-15T22:59:02.412Z,9.92
2023-05-15T23:01:31.555Z,9.92
2023-05-15T23:03:59.323Z,9.93
2023-05-15T23:06:26.933Z,9.90
2023-05-15T23:08:54.730Z,9.85
2023-05-15T23:11:22.318Z,9.82
2023-05-15T23:13:51.385Z,9.83
2023-05-15T23:16:19.105Z,9.81
2023-05-15T23:18:47.156Z,9.80
2023-05-15T23:21:14.875Z,9.76
2023-05-15T23:23:42.490Z,9.73
2023-05-15T23:26:10.109Z,9.68
2023-05-15T23:28:37.845Z,9.68
2023-05-15T23:31:07.085Z,9.66
2023-05-15T23:33:34.979Z,9.67
2023-05-15T23:36:02.614Z,9.64
2023-05-15T23:38:30.238Z,9.60
2023-05-15T23:40:57.866Z,9.61
2023-05-15T23:43:26.237Z,9.56
2023-05-15T23:45:53.860Z,9.51
2023-05-15T23:48:22.802Z,9.49
2023-05-15T23:50:51.552Z,9.48
2023-05-15T23:53:19.215Z,9.45
2023-05-15T23:55:46.875Z,9.43
2023-05-15T23:58:14.466Z,9.45
